For More Information Regarding This Station Ballajura Station

Station Historical Data
 
Daily Summary for April 19, 2014 Units:  Metric    English   Both
« Previous Day
Next Day »
Daily Weekly Monthly Yearly Custom
  Current: High: Low: Average:
Temperature: 19.9 °C 24.4 °C 13.2 °C 18.8 °C
Dew Point: 15 °C 15.6 °C 11.7 °C 13.8 °C
Humidity: 74% 91% 54% 74%
Wind Speed: 4.8km/h 12.9km/h 0km/h 4km/h
Wind Gust: 12.9km/h 20.9km/h - -
WindSW - - SSW
Pressure: 1014.8 hPa 1017.8 hPa 1014.1 hPa -
Precipitation: 0 mm      
Historical Graphs
 
 
Tabular Data for April 19, 2014
Time Temperature Dew Point Pressure Wind Wind Speed Wind Gust Humidity Rainfall Rate (Hourly) solar Conditions
00:04 18.2 °C 14.4 °C 1017.5 hPa South 9.7 km/h 11.3 km/h 79% 0 mm weatherlink.com 1.10 W/m2
00:19 18 °C 14.4 °C 1017.5 hPa SSW 4.8 km/h 9.7 km/h 79% 0 mm weatherlink.com 1.10 W/m2
00:35 17.7 °C 14.4 °C 1017.5 hPa SSW 1.6 km/h 11.3 km/h 80% 0 mm weatherlink.com 1.10 W/m2
00:50 17.4 °C 13.9 °C 1017.5 hPa SSW 3.2 km/h 6.4 km/h 81% 0 mm weatherlink.com 1.10 W/m2
01:05 17.2 °C 13.9 °C 1017.5 hPa SSW 3.2 km/h 6.4 km/h 82% 0 mm weatherlink.com 1.10 W/m2
01:20 16.9 °C 13.9 °C 1017.5 hPa Calm   3.2 km/h 82% 0 mm weatherlink.com 1.10 W/m2
01:35 16.6 °C 13.9 °C 1017.5 hPa Calm     83% 0 mm weatherlink.com 1.10 W/m2
01:50 16.3 °C 13.9 °C 1017.5 hPa Calm     84% 0 mm weatherlink.com 1.10 W/m2
02:05 15.9 °C 13.3 °C 1017.5 hPa Calm   1.6 km/h 85% 0 mm weatherlink.com 1.10 W/m2
02:20 15.8 °C 13.3 °C 1017.2 hPa Calm   6.4 km/h 85% 0 mm weatherlink.com 1.10 W/m2
02:35 15.7 °C 13.3 °C 1017.2 hPa SSW 1.6 km/h 4.8 km/h 85% 0 mm weatherlink.com 1.10 W/m2
02:50 15.6 °C 13.3 °C 1017.2 hPa SSW 1.6 km/h 6.4 km/h 85% 0 mm weatherlink.com 1.10 W/m2
03:05 15.4 °C 12.8 °C 1017.2 hPa Calm   6.4 km/h 85% 0 mm weatherlink.com 1.10 W/m2
03:20 15.3 °C 12.8 °C 1017.2 hPa Calm   4.8 km/h 86% 0 mm weatherlink.com 1.10 W/m2
03:35 15.1 °C 12.8 °C 1017.2 hPa Calm   6.4 km/h 86% 0 mm weatherlink.com 1.10 W/m2
03:50 14.9 °C 12.8 °C 1017.2 hPa Calm   4.8 km/h 86% 0 mm weatherlink.com 1.10 W/m2
04:05 14.7 °C 12.8 °C 1017.5 hPa Calm   4.8 km/h 87% 0 mm weatherlink.com 1.10 W/m2
04:20 14.6 °C 12.2 °C 1017.5 hPa Calm     87% 0 mm weatherlink.com 1.10 W/m2
04:35 14.3 °C 12.2 °C 1017.5 hPa Calm     88% 0 mm weatherlink.com 1.10 W/m2
04:50 14.1 °C 12.2 °C 1017.5 hPa Calm     88% 0 mm weatherlink.com 1.10 W/m2
05:05 13.9 °C 12.2 °C 1017.2 hPa Calm     89% 0 mm weatherlink.com 1.10 W/m2
05:20 13.8 °C 12.2 °C 1017.2 hPa Calm     89% 0 mm weatherlink.com 1.10 W/m2
05:35 13.6 °C 12.2 °C 1017.2 hPa Calm     90% 0 mm weatherlink.com 1.10 W/m2
05:50 13.6 °C 12.2 °C 1017.5 hPa Calm   3.2 km/h 90% 0 mm weatherlink.com 1.10 W/m2
06:06 13.4 °C 11.7 °C 1017.5 hPa Calm     90% 0 mm weatherlink.com 1.10 W/m2
06:20 13.4 °C 11.7 °C 1017.5 hPa SSW 1.6 km/h 3.2 km/h 90% 0 mm weatherlink.com 1.10 W/m2
06:35 13.3 °C 12.2 °C 1017.2 hPa Calm     91% 0 mm weatherlink.com 1.10 W/m2
06:50 13.2 °C 11.7 °C 1017.5 hPa Calm     91% 0 mm weatherlink.com 1.10 W/m2
07:05 13.4 °C 12.2 °C 1017.5 hPa Calm   4.8 km/h 91% 0 mm weatherlink.com 1.10 W/m2
07:20 13.8 °C 12.2 °C 1017.5 hPa Calm   8 km/h 90% 0 mm weatherlink.com 1.10 W/m2
07:35 14.3 °C 12.8 °C 1017.5 hPa Calm   4.8 km/h 89% 0 mm weatherlink.com 1.10 W/m2
07:50 14.9 °C 12.8 °C 1017.5 hPa Calm   4.8 km/h 87% 0 mm weatherlink.com 1.10 W/m2
08:05 15.4 °C 12.8 °C 1017.8 hPa Calm   3.2 km/h 84% 0 mm weatherlink.com 1.10 W/m2
08:20 15.8 °C 12.8 °C 1017.8 hPa SSW 1.6 km/h 3.2 km/h 83% 0 mm weatherlink.com 1.10 W/m2
08:35 16.4 °C 13.3 °C 1017.8 hPa SSW 1.6 km/h 9.7 km/h 81% 0 mm weatherlink.com 1.10 W/m2
08:50 17.2 °C 13.3 °C 1017.8 hPa South 4.8 km/h 11.3 km/h 79% 0 mm weatherlink.com 1.10 W/m2
09:05 17.9 °C 13.9 °C 1017.8 hPa South 3.2 km/h 8 km/h 76% 0 mm weatherlink.com 1.10 W/m2
09:20 18.6 °C 13.9 °C 1017.8 hPa SSW 6.4 km/h 12.9 km/h 74% 0 mm weatherlink.com 1.10 W/m2
09:35 19.2 °C 13.9 °C 1017.5 hPa SSW 3.2 km/h 8 km/h 72% 0 mm weatherlink.com 1.10 W/m2
09:50 19.7 °C 13.9 °C 1017.5 hPa SSE 3.2 km/h 12.9 km/h 70% 0 mm weatherlink.com 1.10 W/m2
10:05 20.1 °C 14.4 °C 1017.5 hPa South 6.4 km/h 14.5 km/h 69% 0 mm weatherlink.com 1.10 W/m2
10:20 20.6 °C 13.9 °C 1017.2 hPa South 6.4 km/h 14.5 km/h 66% 0 mm weatherlink.com 1.10 W/m2
10:36 21.2 °C 14.4 °C 1016.8 hPa SSW 6.4 km/h 11.3 km/h 65% 0 mm weatherlink.com 1.10 W/m2
10:51 21.4 °C 13.9 °C 1016.8 hPa SW 12.9 km/h 19.3 km/h 63% 0 mm weatherlink.com 1.10 W/m2
11:06 21.8 °C 13.9 °C 1016.5 hPa SSW 8 km/h 14.5 km/h 61% 0 mm weatherlink.com 1.10 W/m2
11:21 22.6 °C 13.9 °C 1016.5 hPa South 11.3 km/h 16.1 km/h 59% 0 mm weatherlink.com 1.10 W/m2
11:36 22.8 °C 13.9 °C 1016.1 hPa SW 4.8 km/h 17.7 km/h 58% 0 mm weatherlink.com 1.10 W/m2
11:51 23.2 °C 13.9 °C 1015.8 hPa SSE 9.7 km/h 14.5 km/h 56% 0 mm weatherlink.com 1.10 W/m2
12:06 23.8 °C 13.9 °C 1015.8 hPa SW 6.4 km/h 12.9 km/h 55% 0 mm weatherlink.com 1.10 W/m2
12:21 23.7 °C 13.9 °C 1015.5 hPa SSW 3.2 km/h 17.7 km/h 54% 0 mm weatherlink.com 1.10 W/m2
12:36 24.2 °C 14.4 °C 1015.5 hPa South 9.7 km/h 12.9 km/h 54% 0 mm weatherlink.com 1.10 W/m2
13:06 24.2 °C 15 °C 1014.8 hPa SW 11.3 km/h 19.3 km/h 56% 0 mm weatherlink.com 1.10 W/m2
13:21 24.1 °C 14.4 °C 1014.4 hPa SSE 8 km/h 20.9 km/h 56% 0 mm weatherlink.com 1.10 W/m2
13:36 24.2 °C 15 °C 1014.4 hPa SSW 6.4 km/h 12.9 km/h 56% 0 mm weatherlink.com 1.10 W/m2
13:51 24.1 °C 15 °C 1014.4 hPa SW 4.8 km/h 11.3 km/h 57% 0 mm weatherlink.com 1.10 W/m2
14:06 24.4 °C 15 °C 1014.4 hPa WSW 6.4 km/h 14.5 km/h 56% 0 mm weatherlink.com 1.10 W/m2
14:21 24.2 °C 15 °C 1014.1 hPa SW 3.2 km/h 19.3 km/h 57% 0 mm weatherlink.com 1.10 W/m2
14:36 24.3 °C 15 °C 1014.1 hPa WSW 4.8 km/h 14.5 km/h 57% 0 mm weatherlink.com 1.10 W/m2
14:51 24.4 °C 15 °C 1014.1 hPa SSW 12.9 km/h 17.7 km/h 56% 0 mm weatherlink.com 1.10 W/m2
15:06 24 °C 15 °C 1014.1 hPa SSW 4.8 km/h 17.7 km/h 58% 0 mm weatherlink.com 1.10 W/m2
15:21 23.7 °C 15 °C 1014.1 hPa SSW 6.4 km/h 16.1 km/h 58% 0 mm weatherlink.com 1.10 W/m2
15:36 23.6 °C 15.6 °C 1014.1 hPa SSW 6.4 km/h 16.1 km/h 62% 0 mm weatherlink.com 1.10 W/m2
15:51 23.6 °C 15.6 °C 1014.1 hPa SW 11.3 km/h 16.1 km/h 62% 0 mm weatherlink.com 1.10 W/m2
16:06 23 °C 15.6 °C 1014.1 hPa SSW 4.8 km/h 16.1 km/h 63% 0 mm weatherlink.com 1.10 W/m2
16:21 22.4 °C 15.6 °C 1014.1 hPa SW 1.6 km/h 20.9 km/h 65% 0 mm weatherlink.com 1.10 W/m2
16:36 22.4 °C 15.6 °C 1014.1 hPa SW 4.8 km/h 16.1 km/h 65% 0 mm weatherlink.com 1.10 W/m2
16:51 22.2 °C 15 °C 1014.1 hPa SW 8 km/h 17.7 km/h 65% 0 mm weatherlink.com 1.10 W/m2
17:06 21.7 °C 15 °C 1014.4 hPa SW 4.8 km/h 19.3 km/h 66% 0 mm weatherlink.com 1.10 W/m2
17:21 21.4 °C 15 °C 1014.4 hPa SSW 11.3 km/h 17.7 km/h 67% 0 mm weatherlink.com 1.10 W/m2
17:36 20.9 °C 15 °C 1014.4 hPa SSW 11.3 km/h 14.5 km/h 69% 0 mm weatherlink.com 1.10 W/m2
17:51 20.4 °C 15 °C 1014.8 hPa SSW 6.4 km/h 20.9 km/h 72% 0 mm weatherlink.com 1.10 W/m2
18:06 20.2 °C 15 °C 1014.8 hPa SSW 6.4 km/h 16.1 km/h 73% 0 mm weatherlink.com 1.10 W/m2
18:21 19.9 °C 15 °C 1014.8 hPa SW 4.8 km/h 12.9 km/h 74% 0 mm weatherlink.com 1.10 W/m2
Compliments of Weather Underground